Time;durP1;ratioP1;P1;durP2;ratioP2;P2;SDS_P1;SDS_P2;PMS_P1;PMS_P2;Temp;Humidity;BMP_temperature;BMP_pressure;BME280_temperature;BME280_humidity;BME280_pressure;Samples;Min_cycle;Max_cycle;Signal;HPM_P1;HPM_P2
2021/10/15 00:01:25;;;;;;;0.20;0.20;;;6.30;98.30;;;;;;5082263;28;20186;-72
2021/10/15 00:03:50;;;;;;;0.43;0.30;;;6.30;98.30;;;;;;5091878;28;20182;-72
2021/10/15 00:06:16;;;;;;;0.30;0.30;;;6.30;98.40;;;;;;5098104;28;20213;-72
2021/10/15 00:08:42;;;;;;;0.20;0.20;;;6.30;98.30;;;;;;5082143;28;20174;-72
2021/10/15 00:11:07;;;;;;;1.23;0.40;;;6.30;98.40;;;;;;5097577;28;20257;-72
2021/10/15 00:13:33;;;;;;;0.30;0.30;;;6.40;98.40;;;;;;5093713;28;20186;-72
2021/10/15 00:15:59;;;;;;;0.30;0.30;;;6.40;98.30;;;;;;5093799;28;20212;-72
2021/10/15 00:18:24;;;;;;;0.20;0.20;;;6.40;98.40;;;;;;5091729;28;20181;-72
2021/10/15 00:20:51;;;;;;;0.40;0.40;;;6.40;98.40;;;;;;5095424;28;20315;-73
2021/10/15 00:23:17;;;;;;;2.27;0.30;;;6.40;98.40;;;;;;5086406;28;20182;-72
2021/10/15 00:25:43;;;;;;;0.23;0.23;;;6.40;98.40;;;;;;5093557;28;20777;-72
2021/10/15 00:28:09;;;;;;;0.30;0.30;;;6.40;98.40;;;;;;5092848;28;20181;-72
2021/10/15 00:30:35;;;;;;;0.50;0.50;;;6.40;98.30;;;;;;5095591;28;20728;-72
2021/10/15 00:33:01;;;;;;;0.27;0.27;;;6.40;98.40;;;;;;5091313;28;20679;-72
2021/10/15 00:35:26;;;;;;;0.30;0.30;;;6.40;98.40;;;;;;5089003;28;20209;-72
2021/10/15 00:37:52;;;;;;;0.40;0.40;;;6.50;98.40;;;;;;5091201;28;20213;-72
2021/10/15 00:40:18;;;;;;;1.17;0.30;;;6.50;98.40;;;;;;5089309;28;20194;-72
2021/10/15 00:42:44;;;;;;;0.30;0.30;;;6.50;98.30;;;;;;5088914;28;20178;-72
2021/10/15 00:45:10;;;;;;;0.30;0.30;;;6.50;98.30;;;;;;5088742;28;20703;-72
2021/10/15 00:47:36;;;;;;;0.20;0.20;;;6.50;98.30;;;;;;5086362;28;20178;-72
2021/10/15 00:50:03;;;;;;;0.67;0.40;;;6.50;98.30;;;;;;5089856;28;20182;-72
2021/10/15 00:52:30;;;;;;;0.40;0.40;;;6.50;98.40;;;;;;5086133;28;20219;-72
2021/10/15 00:54:56;;;;;;;0.30;0.30;;;6.50;98.40;;;;;;5083707;28;20618;-74
2021/10/15 00:57:22;;;;;;;0.33;0.33;;;6.50;98.40;;;;;;5090135;28;20205;-72
2021/10/15 00:59:49;;;;;;;0.30;0.30;;;6.50;98.30;;;;;;5083913;28;20890;-72
2021/10/15 01:02:15;;;;;;;0.30;0.30;;;6.50;98.40;;;;;;5086791;28;20174;-72
2021/10/15 01:04:41;;;;;;;0.30;0.30;;;6.50;98.40;;;;;;5094748;28;20619;-72
2021/10/15 01:07:07;;;;;;;0.30;0.30;;;6.50;98.40;;;;;;5090675;28;20216;-73
2021/10/15 01:09:34;;;;;;;0.33;0.33;;;6.50;98.40;;;;;;5086670;28;20292;-72
2021/10/15 01:12:01;;;;;;;0.30;0.30;;;6.50;98.30;;;;;;5093217;28;20600;-72
2021/10/15 01:14:28;;;;;;;0.63;0.30;;;6.50;98.20;;;;;;5098595;28;20246;-72
2021/10/15 01:16:54;;;;;;;0.20;0.20;;;6.50;98.20;;;;;;5100352;28;20192;-73
2021/10/15 01:19:19;;;;;;;0.20;0.20;;;6.50;98.20;;;;;;5092249;28;20178;-73
2021/10/15 01:21:45;;;;;;;0.20;0.20;;;6.50;98.20;;;;;;5098930;28;20220;-72
2021/10/15 01:24:11;;;;;;;0.20;0.20;;;6.50;98.20;;;;;;5099086;28;20182;-72
2021/10/15 01:26:36;;;;;;;0.30;0.30;;;6.50;98.20;;;;;;5092045;28;20306;-72
2021/10/15 01:29:02;;;;;;;0.20;0.20;;;6.50;98.30;;;;;;5089189;28;20201;-73
2021/10/15 01:31:28;;;;;;;0.20;0.20;;;6.50;98.20;;;;;;5092418;28;20192;-72
2021/10/15 01:33:56;;;;;;;0.20;0.20;;;6.50;98.30;;;;;;5095685;28;20190;-73
2021/10/15 01:36:22;;;;;;;0.20;0.20;;;6.50;98.30;;;;;;5098609;28;20265;-72
2021/10/15 01:38:48;;;;;;;0.20;0.20;;;6.50;98.20;;;;;;5097648;28;20255;-72
2021/10/15 01:41:14;;;;;;;0.20;0.20;;;6.50;98.20;;;;;;5074441;28;20946;-72
2021/10/15 01:43:40;;;;;;;0.20;0.20;;;6.50;98.30;;;;;;5090977;28;20191;-73
2021/10/15 01:46:06;;;;;;;0.10;0.10;;;6.50;98.20;;;;;;5091649;28;20226;-72
2021/10/15 01:48:32;;;;;;;0.37;0.13;;;6.50;98.20;;;;;;5092934;28;20186;-72
2021/10/15 01:50:57;;;;;;;0.20;0.20;;;6.50;98.20;;;;;;5093615;28;20178;-73
2021/10/15 01:53:23;;;;;;;0.30;0.30;;;6.50;98.20;;;;;;5092637;28;20181;-72
2021/10/15 01:55:49;;;;;;;0.20;0.20;;;6.50;98.20;;;;;;5093031;28;20190;-72
2021/10/15 01:58:17;;;;;;;0.20;0.20;;;6.50;98.30;;;;;;5092625;28;20171;-72
2021/10/15 02:00:43;;;;;;;0.10;0.10;;;6.50;98.20;;;;;;5076173;28;20191;-73
2021/10/15 02:03:09;;;;;;;0.13;0.13;;;6.50;98.10;;;;;;5098694;28;20257;-72
2021/10/15 02:05:35;;;;;;;0.10;0.10;;;6.50;98.00;;;;;;5091068;28;20686;-72
2021/10/15 02:08:00;;;;;;;0.10;0.10;;;6.50;98.00;;;;;;5094210;28;20580;-72
2021/10/15 02:10:26;;;;;;;0.10;0.10;;;6.50;98.00;;;;;;5093200;28;20199;-72
2021/10/15 02:12:52;;;;;;;0.43;0.10;;;6.50;97.90;;;;;;5096029;28;20190;-72
2021/10/15 02:15:18;;;;;;;0.87;0.20;;;6.50;98.00;;;;;;5092634;28;20190;-72
2021/10/15 02:17:45;;;;;;;0.00;0.00;;;6.50;98.00;;;;;;5096984;28;20182;-72
2021/10/15 02:20:13;;;;;;;0.10;0.10;;;6.50;98.00;;;;;;5095588;28;20200;-72
2021/10/15 02:22:44;;;;;;;0.20;0.20;;;6.50;98.10;;;;;;5092191;28;20182;-72
2021/10/15 02:25:13;;;;;;;0.10;0.10;;;6.50;98.10;;;;;;5085627;28;20214;-73
2021/10/15 02:27:38;;;;;;;0.10;0.10;;;6.40;98.10;;;;;;5093122;28;20236;-72
2021/10/15 02:30:09;;;;;;;0.13;0.13;;;6.40;98.10;;;;;;5089813;28;20205;-72
2021/10/15 02:32:35;;;;;;;0.10;0.10;;;6.40;98.20;;;;;;5095542;28;20182;-72
2021/10/15 02:35:01;;;;;;;0.10;0.10;;;6.40;98.30;;;;;;5095993;28;20200;-73
2021/10/15 02:37:27;;;;;;;0.03;0.03;;;6.40;98.30;;;;;;5092124;28;20261;-72
2021/10/15 02:39:52;;;;;;;0.10;0.10;;;6.40;98.30;;;;;;5091780;28;20242;-72
2021/10/15 02:42:18;;;;;;;0.10;0.10;;;6.40;98.30;;;;;;5094194;28;20189;-72
2021/10/15 02:44:44;;;;;;;0.13;0.10;;;6.40;98.40;;;;;;5096675;28;20214;-72
2021/10/15 02:47:10;;;;;;;0.17;0.17;;;6.40;98.40;;;;;;5097601;28;20174;-72
2021/10/15 02:49:36;;;;;;;0.10;0.10;;;6.40;98.50;;;;;;5089082;28;20706;-72
2021/10/15 02:52:02;;;;;;;0.10;0.10;;;6.40;98.50;;;;;;5098426;28;20308;-73
2021/10/15 02:54:28;;;;;;;0.10;0.10;;;6.40;98.50;;;;;;5074022;28;20187;-72
2021/10/15 02:56:54;;;;;;;0.30;0.10;;;6.40;98.50;;;;;;5084802;28;20216;-72
2021/10/15 02:59:19;;;;;;;0.10;0.10;;;6.40;98.50;;;;;;5087246;28;20190;-73
2021/10/15 03:01:45;;;;;;;0.10;0.10;;;6.40;98.50;;;;;;5093759;28;20181;-73
2021/10/15 03:04:11;;;;;;;0.10;0.10;;;6.40;98.50;;;;;;5089683;28;20315;-72
2021/10/15 03:06:37;;;;;;;0.10;0.10;;;6.40;98.50;;;;;;5096069;28;20206;-72
2021/10/15 03:09:03;;;;;;;0.03;0.03;;;6.40;98.50;;;;;;5088027;28;20186;-72
2021/10/15 03:11:29;;;;;;;0.10;0.10;;;6.40;98.50;;;;;;5074264;28;20206;-72
2021/10/15 03:13:55;;;;;;;0.40;0.20;;;6.40;98.50;;;;;;5093929;28;20272;-72
2021/10/15 03:16:21;;;;;;;0.10;0.10;;;6.50;98.50;;;;;;5093656;28;20205;-72
2021/10/15 03:18:47;;;;;;;0.10;0.10;;;6.50;98.50;;;;;;5092898;28;20189;-72
2021/10/15 03:21:12;;;;;;;0.00;0.00;;;6.50;98.50;;;;;;5074727;28;20196;-72
2021/10/15 03:23:38;;;;;;;0.10;0.10;;;6.50;98.50;;;;;;5095132;28;20190;-72
2021/10/15 03:26:03;;;;;;;0.20;0.10;;;6.50;98.50;;;;;;5094395;28;20691;-72
2021/10/15 03:28:29;;;;;;;0.10;0.10;;;6.50;98.50;;;;;;5088740;28;21711;-72
2021/10/15 03:30:55;;;;;;;0.20;0.10;;;6.50;98.50;;;;;;5090404;28;20683;-72
2021/10/15 03:33:21;;;;;;;0.20;0.20;;;6.50;98.50;;;;;;5090529;28;20178;-73
2021/10/15 03:35:46;;;;;;;0.10;0.10;;;6.50;98.50;;;;;;5089815;28;20272;-72
2021/10/15 03:38:12;;;;;;;0.10;0.10;;;6.40;98.50;;;;;;5092937;28;20181;-71
2021/10/15 03:40:38;;;;;;;0.20;0.20;;;6.40;98.50;;;;;;5091662;28;20182;-71
2021/10/15 03:43:04;;;;;;;0.23;0.23;;;6.50;98.50;;;;;;5085353;28;20178;-72
2021/10/15 03:45:29;;;;;;;0.20;0.20;;;6.50;98.50;;;;;;5086190;28;20214;-73
2021/10/15 03:47:55;;;;;;;0.20;0.20;;;6.50;98.50;;;;;;5092546;28;20597;-73
2021/10/15 03:50:23;;;;;;;0.20;0.20;;;6.40;98.50;;;;;;5092172;28;20177;-72
2021/10/15 03:52:49;;;;;;;0.30;0.30;;;6.40;98.50;;;;;;5073238;28;20292;-73
2021/10/15 03:55:15;;;;;;;0.30;0.30;;;6.50;98.50;;;;;;5093936;28;20322;-72
2021/10/15 03:57:42;;;;;;;0.30;0.30;;;6.50;98.50;;;;;;5088142;28;20193;-71
2021/10/15 04:00:19;;;;;;;0.50;0.30;;;6.50;98.50;;;;;;5089102;28;20975;-72
2021/10/15 04:02:46;;;;;;;0.60;0.60;;;6.50;98.50;;;;;;5070462;28;20207;-72
2021/10/15 04:05:13;;;;;;;0.60;0.60;;;6.50;98.50;;;;;;5091163;28;20234;-71
2021/10/15 04:07:39;;;;;;;0.70;0.70;;;6.50;98.50;;;;;;5087516;28;20571;-72
2021/10/15 04:10:07;;;;;;;0.70;0.70;;;6.50;98.50;;;;;;5091072;28;20182;-73
2021/10/15 04:12:34;;;;;;;1.03;1.00;;;6.40;98.50;;;;;;5089907;28;20261;-73
2021/10/15 04:15:00;;;;;;;0.97;0.97;;;6.50;98.50;;;;;;5087564;28;20204;-73
2021/10/15 04:17:26;;;;;;;0.70;0.70;;;6.50;98.50;;;;;;5070398;28;20978;-70
2021/10/15 04:19:52;;;;;;;1.57;1.07;;;6.50;98.50;;;;;;5087535;28;20274;-69
2021/10/15 04:22:17;;;;;;;1.03;0.90;;;6.50;98.50;;;;;;5083745;28;20261;-69
2021/10/15 04:24:43;;;;;;;1.20;1.10;;;6.50;98.50;;;;;;5082383;28;20228;-69
2021/10/15 04:27:09;;;;;;;0.93;0.93;;;6.50;98.50;;;;;;5087114;28;20179;-68
2021/10/15 04:29:35;;;;;;;1.10;1.10;;;6.50;98.50;;;;;;5083755;28;20178;-67
2021/10/15 04:32:01;;;;;;;1.10;1.10;;;6.50;98.50;;;;;;5088124;28;20181;-69
2021/10/15 04:34:26;;;;;;;0.80;0.80;;;6.50;98.50;;;;;;5082125;28;20204;-70
2021/10/15 04:36:52;;;;;;;1.23;1.07;;;6.50;98.50;;;;;;5083502;28;20746;-72
2021/10/15 04:39:18;;;;;;;0.90;0.90;;;6.50;98.50;;;;;;5084219;28;20698;-73
2021/10/15 04:41:44;;;;;;;1.27;1.27;;;6.60;98.50;;;;;;5089462;28;20174;-72
2021/10/15 04:44:10;;;;;;;1.17;1.07;;;6.60;98.50;;;;;;5086102;28;20170;-74
2021/10/15 04:46:36;;;;;;;1.00;1.00;;;6.60;98.50;;;;;;5088753;28;20274;-74
2021/10/15 04:49:02;;;;;;;2.67;1.37;;;6.60;98.50;;;;;;5082183;28;20183;-73
2021/10/15 04:51:31;;;;;;;1.43;1.17;;;6.60;98.50;;;;;;5090650;28;20186;-74
2021/10/15 04:53:56;;;;;;;1.50;1.50;;;6.60;98.50;;;;;;5094430;28;20265;-74
2021/10/15 04:56:22;;;;;;;1.27;1.27;;;6.60;98.50;;;;;;5089797;28;20260;-69
2021/10/15 04:58:48;;;;;;;1.30;1.20;;;6.60;98.50;;;;;;5082700;28;20293;-70
2021/10/15 05:01:14;;;;;;;0.90;0.90;;;6.60;98.50;;;;;;5070058;28;20679;-69
2021/10/15 05:03:40;;;;;;;1.10;1.10;;;6.60;98.50;;;;;;5086382;28;20171;-69
2021/10/15 05:06:06;;;;;;;2.00;1.17;;;6.60;98.50;;;;;;5082027;28;20286;-69
2021/10/15 05:08:38;;;;;;;0.73;0.73;;;6.60;98.50;;;;;;5081217;28;20178;-69
2021/10/15 05:11:04;;;;;;;1.20;1.03;;;6.70;98.50;;;;;;5071908;28;20829;-68
2021/10/15 05:13:30;;;;;;;1.17;1.17;;;6.70;98.50;;;;;;5090803;28;20179;-69
2021/10/15 05:15:56;;;;;;;0.77;0.77;;;6.70;98.50;;;;;;5083505;28;20182;-69
2021/10/15 05:18:21;;;;;;;2.40;2.37;;;6.70;98.50;;;;;;5091317;28;20918;-70
2021/10/15 05:20:47;;;;;;;1.97;1.77;;;6.70;98.50;;;;;;5089111;28;20269;-70
2021/10/15 05:23:14;;;;;;;1.33;1.20;;;6.70;98.50;;;;;;5091835;28;20181;-70
2021/10/15 05:25:40;;;;;;;1.90;1.00;;;6.70;98.50;;;;;;5065576;28;20331;-72
2021/10/15 05:28:06;;;;;;;1.30;1.30;;;6.70;98.50;;;;;;5086146;28;21067;-73
2021/10/15 05:30:32;;;;;;;1.20;1.20;;;6.70;98.50;;;;;;5069164;28;20181;-72
2021/10/15 05:32:59;;;;;;;3.20;1.43;;;6.70;98.50;;;;;;5086903;28;20866;-73
2021/10/15 05:35:25;;;;;;;1.20;1.20;;;6.70;98.50;;;;;;5086482;28;20677;-75
2021/10/15 05:37:50;;;;;;;0.97;0.97;;;6.70;98.50;;;;;;5065999;28;20222;-73
2021/10/15 05:40:18;;;;;;;1.43;1.40;;;6.70;98.50;;;;;;5088054;28;20189;-74
2021/10/15 05:42:47;;;;;;;0.97;0.90;;;6.70;98.50;;;;;;5091687;28;20177;-73
2021/10/15 05:45:13;;;;;;;1.43;1.17;;;6.80;98.50;;;;;;5095466;28;20209;-73
2021/10/15 05:47:39;;;;;;;0.90;0.90;;;6.80;98.50;;;;;;5092156;28;20186;-73
2021/10/15 05:50:06;;;;;;;1.47;1.47;;;6.80;98.50;;;;;;5097722;28;20269;-73
2021/10/15 05:52:34;;;;;;;2.60;1.70;;;6.80;98.50;;;;;;5076782;28;20234;-73
2021/10/15 06:00:24;;;;;;;3.53;1.90;;;6.90;98.50;;;;;;5100377;28;20209;-73
2021/10/15 06:02:49;;;;;;;1.33;1.33;;;6.90;98.50;;;;;;5096041;28;20175;-73
2021/10/15 06:15:53;;;;;;;2.07;1.97;;;6.90;98.50;;;;;;5088598;28;20197;-73
2021/10/15 06:18:21;;;;;;;2.40;1.67;;;6.90;98.50;;;;;;5075602;28;20214;-73
2021/10/15 06:20:49;;;;;;;2.10;2.00;;;6.90;98.50;;;;;;5085719;28;20205;-73
2021/10/15 06:23:16;;;;;;;2.23;2.13;;;6.90;98.50;;;;;;5078008;28;20327;-74
2021/10/15 06:25:42;;;;;;;1.70;1.60;;;6.90;98.50;;;;;;5075349;28;20197;-74
2021/10/15 06:28:10;;;;;;;2.10;1.60;;;6.90;98.50;;;;;;5109249;27;20182;-73
2021/10/15 06:30:37;;;;;;;1.53;1.47;;;6.90;98.50;;;;;;5075107;28;20177;-74
2021/10/15 06:33:03;;;;;;;1.50;1.40;;;7.00;98.50;;;;;;5074058;28;20182;-74
2021/10/15 06:35:29;;;;;;;1.30;1.30;;;7.00;98.50;;;;;;5090276;28;20192;-73
2021/10/15 06:37:55;;;;;;;1.57;0.63;;;7.00;98.50;;;;;;5094119;28;20174;-73
2021/10/15 06:40:21;;;;;;;0.70;0.70;;;7.10;98.50;;;;;;5076576;28;21018;-74
2021/10/15 06:42:48;;;;;;;0.60;0.60;;;7.10;98.50;;;;;;5093143;28;20200;-74
2021/10/15 06:45:15;;;;;;;0.60;0.60;;;7.10;98.50;;;;;;5071729;28;20596;-74
2021/10/15 06:47:40;;;;;;;2.00;0.60;;;7.10;98.50;;;;;;5073984;28;20193;-74
2021/10/15 06:50:07;;;;;;;2.67;0.50;;;7.10;98.50;;;;;;5076648;28;20766;-73
2021/10/15 06:52:48;;;;;;;2.67;0.40;;;7.20;98.50;;;;;;5090074;28;20221;-73
2021/10/15 06:55:18;;;;;;;0.70;0.70;;;7.20;98.50;;;;;;5093098;28;20193;-74
2021/10/15 06:57:44;;;;;;;0.90;0.50;;;7.20;98.50;;;;;;5094558;28;20185;-73
2021/10/15 07:00:11;;;;;;;0.60;0.60;;;7.20;98.50;;;;;;5074116;28;20185;-73
2021/10/15 07:02:37;;;;;;;0.70;0.70;;;7.30;98.50;;;;;;5078842;28;20273;-73
2021/10/15 07:05:04;;;;;;;0.60;0.60;;;7.30;98.50;;;;;;5077939;28;20941;-73
2021/10/15 07:07:30;;;;;;;0.87;0.87;;;7.30;98.50;;;;;;5090248;28;20186;-73
2021/10/15 07:09:59;;;;;;;0.73;0.70;;;7.30;98.50;;;;;;5093719;28;20201;-74
2021/10/15 07:12:28;;;;;;;0.67;0.67;;;7.40;98.50;;;;;;5075306;28;20639;-74
2021/10/15 07:14:54;;;;;;;0.83;0.83;;;7.40;98.50;;;;;;5072985;28;20193;-74
2021/10/15 07:17:21;;;;;;;1.63;0.73;;;7.40;98.50;;;;;;5072381;28;20186;-74
2021/10/15 07:19:47;;;;;;;1.10;1.10;;;7.40;98.50;;;;;;5068409;28;20214;-72
2021/10/15 07:22:13;;;;;;;1.63;1.07;;;7.40;98.50;;;;;;5074115;28;20862;-74
2021/10/15 07:24:39;;;;;;;0.90;0.90;;;7.50;98.50;;;;;;5094377;28;20182;-73
2021/10/15 07:27:04;;;;;;;0.90;0.90;;;7.50;98.50;;;;;;5093076;28;20178;-73
2021/10/15 07:29:30;;;;;;;1.17;1.07;;;7.50;98.50;;;;;;5086810;28;20231;-73
2021/10/15 07:31:56;;;;;;;1.07;1.07;;;7.50;98.50;;;;;;5074960;28;20180;-71
2021/10/15 07:34:21;;;;;;;1.47;1.37;;;7.50;98.50;;;;;;5073428;28;20289;-72
2021/10/15 07:36:47;;;;;;;1.40;1.30;;;7.50;98.50;;;;;;5090770;28;20240;-72
2021/10/15 07:39:13;;;;;;;1.33;1.33;;;7.50;98.50;;;;;;5082471;28;20826;-74
2021/10/15 07:41:45;;;;;;;1.03;1.03;;;7.50;98.50;;;;;;5079177;28;20944;-73
2021/10/15 07:44:13;;;;;;;2.07;1.13;;;7.50;98.50;;;;;;5076344;28;20178;-72
2021/10/15 07:46:39;;;;;;;1.87;1.40;;;7.60;98.50;;;;;;5094755;28;20201;-73
2021/10/15 07:49:06;;;;;;;1.03;1.03;;;7.60;98.50;;;;;;5075843;28;20244;-73
2021/10/15 07:51:32;;;;;;;1.47;1.07;;;7.60;98.50;;;;;;5096092;28;20220;-73
2021/10/15 07:53:58;;;;;;;1.70;1.60;;;7.60;98.50;;;;;;5090556;28;20209;-72
2021/10/15 07:56:24;;;;;;;1.73;1.63;;;7.60;98.50;;;;;;5074859;28;20209;-73
2021/10/15 07:58:50;;;;;;;1.93;1.77;;;7.70;98.50;;;;;;5068809;28;20182;-73
2021/10/15 08:01:15;;;;;;;2.50;1.67;;;7.70;98.50;;;;;;5110282;27;20197;-73
2021/10/15 08:03:41;;;;;;;1.27;1.20;;;7.70;98.50;;;;;;5092142;28;20184;-73
2021/10/15 08:06:08;;;;;;;1.00;1.00;;;7.70;98.50;;;;;;5071731;28;20244;-73
2021/10/15 08:08:33;;;;;;;0.80;0.80;;;7.70;98.50;;;;;;5087985;28;20262;-73
2021/10/15 08:10:59;;;;;;;0.93;0.83;;;7.70;98.50;;;;;;5076963;28;20265;-73
2021/10/15 08:13:25;;;;;;;2.63;0.70;;;7.70;98.50;;;;;;5076474;28;20255;-73
2021/10/15 08:15:51;;;;;;;0.80;0.80;;;7.70;98.50;;;;;;5073717;28;20239;-73
2021/10/15 08:18:17;;;;;;;0.57;0.57;;;7.70;98.50;;;;;;5070991;28;20193;-72
2021/10/15 08:20:42;;;;;;;0.80;0.80;;;7.80;98.50;;;;;;5071450;28;20307;-73
2021/10/15 08:23:09;;;;;;;2.43;0.73;;;7.80;98.50;;;;;;5074419;28;20239;-72
2021/10/15 08:25:34;;;;;;;0.73;0.70;;;7.80;98.50;;;;;;5067994;28;20771;-72
2021/10/15 08:28:00;;;;;;;1.03;0.70;;;7.80;98.50;;;;;;5091350;28;20174;-72
2021/10/15 08:30:27;;;;;;;0.87;0.87;;;7.90;98.50;;;;;;5071690;28;20772;-72
2021/10/15 08:32:54;;;;;;;0.70;0.70;;;7.90;98.50;;;;;;5090797;28;20197;-72
2021/10/15 08:35:21;;;;;;;0.70;0.70;;;7.90;98.50;;;;;;5086982;28;20206;-73
2021/10/15 08:37:48;;;;;;;0.50;0.50;;;7.90;98.50;;;;;;5073196;28;20235;-72
2021/10/15 08:40:13;;;;;;;0.47;0.47;;;7.90;98.50;;;;;;5070304;28;20193;-73
2021/10/15 08:42:50;;;;;;;0.40;0.40;;;7.90;98.50;;;;;;5075643;28;20182;-73
2021/10/15 08:45:16;;;;;;;0.53;0.53;;;7.90;98.50;;;;;;5094232;28;20212;-73
2021/10/15 08:47:42;;;;;;;0.70;0.70;;;7.90;98.50;;;;;;5073603;28;20467;-74
2021/10/15 08:50:08;;;;;;;0.50;0.50;;;7.90;98.50;;;;;;5085492;28;20622;-73
2021/10/15 08:52:35;;;;;;;0.60;0.60;;;7.90;98.50;;;;;;5077238;28;20174;-73
2021/10/15 08:55:01;;;;;;;0.50;0.50;;;8.00;98.50;;;;;;5078728;28;20181;-74
2021/10/15 08:57:27;;;;;;;0.40;0.40;;;8.00;98.50;;;;;;5084633;28;20182;-73
2021/10/15 08:59:53;;;;;;;0.40;0.40;;;7.90;98.50;;;;;;5090660;28;20218;-73
2021/10/15 09:02:21;;;;;;;0.40;0.40;;;8.00;98.50;;;;;;5094520;28;20276;-73
2021/10/15 09:04:53;;;;;;;0.63;0.47;;;8.00;98.50;;;;;;5090483;28;20187;-72
2021/10/15 09:07:20;;;;;;;0.40;0.40;;;8.00;98.50;;;;;;5083436;28;20186;-73
2021/10/15 09:09:47;;;;;;;0.60;0.60;;;8.00;98.50;;;;;;5072224;28;20186;-73
2021/10/15 09:12:18;;;;;;;2.30;0.73;;;8.00;98.50;;;;;;5074766;28;20178;-73
2021/10/15 09:14:46;;;;;;;1.07;0.70;;;8.10;98.50;;;;;;5071856;28;20195;-73
2021/10/15 09:17:16;;;;;;;0.57;0.57;;;8.10;98.50;;;;;;5092257;28;20184;-72
2021/10/15 09:19:43;;;;;;;0.57;0.57;;;8.20;98.50;;;;;;5092977;28;20175;-73
2021/10/15 09:22:13;;;;;;;3.63;0.80;;;8.20;98.50;;;;;;5093594;28;20187;-73
2021/10/15 09:24:47;;;;;;;0.87;0.80;;;8.30;98.50;;;;;;5075852;28;20311;-73
2021/10/15 09:27:19;;;;;;;6.80;1.30;;;8.30;98.50;;;;;;5076524;28;20178;-73
2021/10/15 09:29:57;;;;;;;0.80;0.80;;;8.30;98.50;;;;;;5091465;28;20189;-73
2021/10/15 09:32:27;;;;;;;1.27;1.17;;;8.40;98.50;;;;;;5094397;28;20182;-73
2021/10/15 09:34:54;;;;;;;1.30;1.23;;;8.40;98.50;;;;;;5077673;28;20202;-73
2021/10/15 09:37:24;;;;;;;1.40;1.20;;;8.40;98.50;;;;;;5097440;28;20678;-74
2021/10/15 09:39:59;;;;;;;2.93;0.77;;;8.50;98.50;;;;;;5074801;28;20671;-73
2021/10/15 09:42:28;;;;;;;1.13;1.03;;;8.50;98.50;;;;;;5074025;28;20182;-73
2021/10/15 09:44:59;;;;;;;0.90;0.90;;;8.50;98.50;;;;;;5075160;28;20269;-72
2021/10/15 09:47:26;;;;;;;2.20;0.97;;;8.50;98.50;;;;;;5073518;28;20182;-72
2021/10/15 09:49:58;;;;;;;1.48;1.48;;;8.50;98.50;;;;;;5094355;28;20935;-73
2021/10/15 09:52:40;;;;;;;1.90;1.80;;;8.50;98.50;;;;;;5075334;28;20190;-72
2021/10/15 09:55:33;;;;;;;2.15;2.10;;;8.60;98.50;;;;;;5092655;28;20177;-72
2021/10/15 09:58:19;;;;;;;2.10;2.00;;;8.60;98.50;;;;;;5079476;28;20182;-72
2021/10/15 10:00:52;;;;;;;2.63;2.43;;;8.50;98.50;;;;;;5078061;28;20246;-72
2021/10/15 10:03:20;;;;;;;2.95;2.60;;;8.50;98.50;;;;;;5079608;28;20262;-72
2021/10/15 10:05:46;;;;;;;3.97;2.93;;;8.50;98.50;;;;;;5073554;28;20222;-74
2021/10/15 10:08:12;;;;;;;3.55;3.28;;;8.60;98.50;;;;;;5080479;28;20185;-72
2021/10/15 10:10:39;;;;;;;4.13;3.73;;;8.60;98.50;;;;;;5081156;28;20865;-73
2021/10/15 10:13:08;;;;;;;4.53;3.47;;;8.60;98.50;;;;;;5075247;28;20579;-72
2021/10/15 10:15:37;;;;;;;3.35;3.03;;;8.60;98.50;;;;;;5099510;28;20723;-72
2021/10/15 10:18:21;;;;;;;4.00;3.65;;;8.60;98.50;;;;;;5095946;28;20189;-72
2021/10/15 10:20:52;;;;;;;8.20;4.00;;;8.60;98.50;;;;;;5083874;28;20190;-72
2021/10/15 10:23:28;;;;;;;4.63;3.40;;;8.60;98.50;;;;;;5080019;28;20210;-73
2021/10/15 10:26:04;;;;;;;5.38;3.67;;;8.70;98.50;;;;;;5080027;28;20293;-72
2021/10/15 10:28:31;;;;;;;3.60;3.15;;;8.70;98.50;;;;;;5078662;28;20239;-72
2021/10/15 10:31:02;;;;;;;3.63;3.22;;;8.70;98.50;;;;;;5094571;28;20179;-73
2021/10/15 10:33:30;;;;;;;3.08;2.88;;;8.70;98.50;;;;;;5079755;28;20246;-73
2021/10/15 10:36:12;;;;;;;4.03;2.57;;;8.70;98.40;;;;;;5078998;28;20189;-72
2021/10/15 10:38:39;;;;;;;3.10;2.77;;;8.70;98.30;;;;;;5079704;28;20235;-72
2021/10/15 10:41:04;;;;;;;4.38;2.63;;;8.70;98.50;;;;;;5076022;28;20212;-73
2021/10/15 10:43:46;;;;;;;3.15;2.47;;;8.70;98.40;;;;;;5079083;28;20210;-73
2021/10/15 10:46:21;;;;;;;2.30;2.20;;;8.70;98.20;;;;;;5074788;28;20214;-74
2021/10/15 10:48:49;;;;;;;2.40;2.30;;;8.70;98.30;;;;;;5075219;28;20177;-73
2021/10/15 10:51:19;;;;;;;2.13;2.03;;;8.70;98.40;;;;;;5075523;28;20210;-74
2021/10/15 10:54:00;;;;;;;1.50;1.27;;;8.70;98.40;;;;;;5080676;28;20572;-74
2021/10/15 10:56:38;;;;;;;1.63;1.52;;;8.70;98.20;;;;;;5075235;28;20186;-74
2021/10/15 10:59:17;;;;;;;2.03;1.92;;;8.70;98.20;;;;;;5075422;28;20555;-74
2021/10/15 11:02:12;;;;;;;1.23;1.23;;;8.70;98.30;;;;;;5076277;28;20212;-74
2021/10/15 11:04:52;;;;;;;1.50;1.50;;;8.70;98.20;;;;;;5093932;28;20516;-74
2021/10/15 11:07:19;;;;;;;1.95;1.55;;;8.70;98.10;;;;;;5073688;28;20197;-74
2021/10/15 11:09:45;;;;;;;3.50;2.05;;;8.70;98.30;;;;;;5079613;28;20174;-73
2021/10/15 11:12:28;;;;;;;2.03;1.75;;;8.70;98.40;;;;;;5082539;28;20189;-73
2021/10/15 11:14:55;;;;;;;1.50;1.50;;;8.70;98.20;;;;;;5097249;28;20186;-73
2021/10/15 11:17:29;;;;;;;1.52;1.42;;;8.70;98.40;;;;;;5093590;28;20178;-73
2021/10/15 11:20:13;;;;;;;2.25;2.13;;;8.70;98.40;;;;;;5079389;28;20177;-73
2021/10/15 11:22:41;;;;;;;1.70;1.42;;;8.70;98.30;;;;;;5074168;28;20201;-73
2021/10/15 11:25:09;;;;;;;1.38;1.38;;;8.70;98.40;;;;;;5094180;28;20259;-73
2021/10/15 11:27:35;;;;;;;1.42;1.42;;;8.80;98.40;;;;;;5100137;28;20182;-72
2021/10/15 11:30:07;;;;;;;1.45;1.45;;;8.80;98.40;;;;;;5094758;28;20182;-73
2021/10/15 11:32:39;;;;;;;1.70;1.70;;;8.80;98.40;;;;;;5065105;28;20643;-73
2021/10/15 11:35:30;;;;;;;1.63;1.63;;;8.80;98.30;;;;;;5078108;28;20197;-73
2021/10/15 11:37:57;;;;;;;1.52;1.52;;;8.80;98.20;;;;;;5075889;28;20179;-73
2021/10/15 11:40:29;;;;;;;1.70;1.52;;;8.80;98.40;;;;;;5093904;28;20236;-74
2021/10/15 11:43:08;;;;;;;1.55;1.55;;;8.80;98.30;;;;;;5076723;28;20186;-73
2021/10/15 11:45:37;;;;;;;1.60;1.48;;;8.80;98.10;;;;;;5094641;28;20277;-73
2021/10/15 11:48:04;;;;;;;2.08;1.98;;;8.90;98.20;;;;;;5093043;28;20182;-73
2021/10/15 11:50:40;;;;;;;1.98;1.88;;;8.90;98.30;;;;;;5092264;28;20219;-74
2021/10/15 11:53:07;;;;;;;1.77;1.67;;;8.90;98.20;;;;;;5067315;28;20273;-73
2021/10/15 11:55:36;;;;;;;6.60;2.55;;;8.90;98.50;;;;;;5067750;28;20186;-73
2021/10/15 11:58:28;;;;;;;2.15;2.05;;;8.90;98.50;;;;;;5094541;28;20554;-71
2021/10/15 12:00:56;;;;;;;1.92;1.80;;;8.90;98.40;;;;;;5075302;28;20218;-73
2021/10/15 12:03:29;;;;;;;1.77;1.67;;;8.90;98.50;;;;;;5094382;28;20188;-73
2021/10/15 12:05:56;;;;;;;5.88;2.35;;;8.90;98.50;;;;;;5088484;28;20221;-73
2021/10/15 12:08:23;;;;;;;2.50;2.17;;;8.90;98.50;;;;;;5072754;28;20181;-74
2021/10/15 12:10:50;;;;;;;2.60;2.40;;;9.00;98.50;;;;;;5091797;28;20174;-73
2021/10/15 12:13:16;;;;;;;2.67;1.92;;;9.00;98.50;;;;;;5093269;28;20190;-73
2021/10/15 12:15:42;;;;;;;1.70;1.60;;;9.00;98.50;;;;;;5093000;28;20190;-73
2021/10/15 12:18:09;;;;;;;2.47;2.28;;;9.10;98.50;;;;;;5092931;28;20647;-73
2021/10/15 12:20:35;;;;;;;2.50;2.20;;;9.10;98.50;;;;;;5097802;28;20550;-73
2021/10/15 12:23:06;;;;;;;2.08;1.92;;;9.10;98.50;;;;;;5096625;28;20292;-74
2021/10/15 12:25:32;;;;;;;2.58;2.38;;;9.20;98.40;;;;;;5090673;28;20726;-74
2021/10/15 12:27:58;;;;;;;3.33;3.03;;;9.20;98.50;;;;;;5095129;28;20174;-73
2021/10/15 12:30:26;;;;;;;2.92;2.83;;;9.30;98.40;;;;;;5096635;28;20254;-73
2021/10/15 12:32:52;;;;;;;3.88;3.42;;;9.30;98.20;;;;;;5094921;28;20785;-73
2021/10/15 12:35:22;;;;;;;2.75;2.65;;;9.30;98.20;;;;;;5074195;28;20202;-73
2021/10/15 12:37:51;;;;;;;3.77;3.40;;;9.30;98.10;;;;;;5076005;28;20192;-74
2021/10/15 12:40:28;;;;;;;2.58;2.47;;;9.30;98.20;;;;;;5075227;28;20563;-73
2021/10/15 12:43:06;;;;;;;3.35;3.13;;;9.30;98.10;;;;;;5076203;28;20181;-74
2021/10/15 12:45:43;;;;;;;3.97;2.75;;;9.30;98.20;;;;;;5095385;28;20224;-74
2021/10/15 12:48:28;;;;;;;2.78;2.45;;;9.30;98.00;;;;;;5094370;28;20185;-74
2021/10/15 12:51:04;;;;;;;2.13;1.98;;;9.30;97.90;;;;;;5072785;28;20212;-74
2021/10/15 12:53:40;;;;;;;2.72;2.53;;;9.30;98.00;;;;;;5096184;28;20218;-74
2021/10/15 12:56:12;;;;;;;2.58;2.15;;;9.30;98.10;;;;;;5089220;28;20193;-74
2021/10/15 12:58:50;;;;;;;2.47;2.33;;;9.30;98.00;;;;;;5076603;28;20676;-73
2021/10/15 13:01:24;;;;;;;2.05;1.80;;;9.30;98.00;;;;;;5076487;28;20238;-73
2021/10/15 13:03:50;;;;;;;2.28;2.17;;;9.30;98.10;;;;;;5092147;28;20272;-75
2021/10/15 13:06:16;;;;;;;4.63;2.70;;;9.30;98.20;;;;;;5092896;28;20213;-72
2021/10/15 13:08:49;;;;;;;2.85;2.72;;;9.30;98.10;;;;;;5092646;28;20604;-74
2021/10/15 13:11:18;;;;;;;5.53;3.22;;;9.30;98.20;;;;;;5073956;28;20268;-74
2021/10/15 13:13:48;;;;;;;3.35;2.80;;;9.40;98.00;;;;;;5111569;27;20277;-73
2021/10/15 13:16:16;;;;;;;3.33;3.03;;;9.40;98.10;;;;;;5082087;28;20662;-73
2021/10/15 13:18:42;;;;;;;2.20;2.10;;;9.40;98.10;;;;;;5079549;28;20900;-73